Time;durP1;ratioP1;P1;durP2;ratioP2;P2;SDS_P1;SDS_P2;PMS_P1;PMS_P2;Temp;Humidity;BMP_temperature;BMP_pressure;BME280_temperature;BME280_humidity;BME280_pressure;Samples;Min_cycle;Max_cycle;Signal;HPM_P1;HPM_P2
2023/06/29 00:01:55;;;;;;;11.80;10.60;;;;;;;15.82;93.64;100347.30;106137;1254;99078;-78
2023/06/29 00:04:41;;;;;;;11.80;10.60;;;;;;;15.80;93.96;100344.63;106179;1256;97802;-78
2023/06/29 00:07:26;;;;;;;11.60;10.40;;;;;;;15.79;93.96;100343.92;106166;1256;96591;-79
2023/06/29 00:10:13;;;;;;;13.10;11.70;;;;;;;15.78;93.97;100345.51;106251;1256;97228;-78
2023/06/29 00:12:59;;;;;;;11.00;9.90;;;;;;;15.76;94.15;100345.06;106259;1256;99975;-78
2023/06/29 00:15:44;;;;;;;13.00;11.20;;;;;;;15.75;94.04;100346.02;105845;1253;99074;-78
2023/06/29 00:18:29;;;;;;;11.20;9.80;;;;;;;15.73;93.73;100343.67;105498;1256;98969;-78
2023/06/29 00:21:16;;;;;;;11.10;9.70;;;;;;;15.71;93.79;100344.27;105522;1253;96689;-78
2023/06/29 00:24:02;;;;;;;10.90;9.80;;;;;;;15.70;94.21;100348.81;106089;1254;97191;-79
2023/06/29 00:26:48;;;;;;;15.10;9.20;;;;;;;15.68;93.93;100347.92;105776;1254;100059;-77
2023/06/29 00:29:33;;;;;;;11.70;9.80;;;;;;;15.66;93.90;100344.29;106281;1254;99834;-78
2023/06/29 00:32:19;;;;;;;14.40;9.50;;;;;;;15.66;93.86;100342.22;106244;1256;98974;-78
2023/06/29 00:35:05;;;;;;;11.20;10.10;;;;;;;15.66;94.01;100347.86;106165;1259;96611;-78
2023/06/29 00:37:51;;;;;;;10.60;9.10;;;;;;;15.65;93.94;100346.67;106261;1256;97127;-79
2023/06/29 00:40:37;;;;;;;9.70;8.60;;;;;;;15.62;94.11;100348.98;106377;1256;101252;-77
2023/06/29 00:43:23;;;;;;;13.30;8.80;;;;;;;15.59;94.23;100351.91;106213;1253;99076;-78
2023/06/29 00:46:10;;;;;;;11.90;8.50;;;;;;;15.56;94.31;100354.14;106267;1254;98635;-79
2023/06/29 00:48:55;;;;;;;8.70;7.80;;;;;;;15.54;94.21;100357.48;106229;1254;96604;-79
2023/06/29 00:51:41;;;;;;;11.30;8.30;;;;;;;15.53;94.06;100360.85;106168;1259;97062;-79
2023/06/29 00:54:27;;;;;;;10.50;8.90;;;;;;;15.51;94.16;100359.92;106211;1253;99803;-78
2023/06/29 00:57:13;;;;;;;9.20;8.20;;;;;;;15.49;94.19;100364.30;106570;1256;107512;-77
2023/06/29 01:00:00;;;;;;;9.40;8.20;;;;;;;15.45;94.39;100362.97;106108;1257;98766;-79
2023/06/29 01:02:48;;;;;;;11.20;8.30;;;;;;;15.41;94.69;100360.20;106142;1258;96582;-78
2023/06/29 01:05:34;;;;;;;9.80;8.30;;;;;;;15.39;94.61;100354.58;106464;1254;97193;-79
2023/06/29 01:08:25;;;;;;;9.80;7.70;;;;;;;15.37;94.42;100353.89;106348;1254;99994;-79
2023/06/29 01:11:12;;;;;;;;;;;;;;;15.37;94.74;100349.79;106310;1256;99250;-79
2023/06/29 01:14:01;;;;;;;8.60;7.50;;;;;;;15.34;94.87;100347.31;106249;1257;97721;-78
2023/06/29 01:16:48;;;;;;;9.60;7.30;;;;;;;15.31;94.90;100343.36;106194;1254;95978;-79
2023/06/29 01:19:34;;;;;;;8.80;7.90;;;;;;;15.29;94.84;100341.21;106246;1258;97594;-79
2023/06/29 01:22:38;;;;;;;9.10;8.10;;;;;;;15.31;94.75;100343.15;106262;1256;100006;-79
2023/06/29 01:25:23;;;;;;;12.20;8.00;;;;;;;15.31;94.74;100340.25;106322;1256;99078;-79
2023/06/29 01:28:09;;;;;;;12.80;7.80;;;;;;;15.30;94.77;100339.31;106355;1256;98676;-78
2023/06/29 01:30:55;;;;;;;8.90;8.00;;;;;;;15.28;94.96;100340.48;106223;1254;97654;-78
2023/06/29 01:33:41;;;;;;;9.90;7.90;;;;;;;15.27;95.06;100342.11;106265;1254;97199;-78
2023/06/29 01:36:38;;;;;;;8.40;7.60;;;;;;;15.26;95.04;100341.96;106200;1256;100163;-79
2023/06/29 01:39:26;;;;;;;10.90;8.70;;;;;;;15.22;94.98;100336.52;106113;1254;99067;-79
2023/06/29 01:42:13;;;;;;;12.30;8.80;;;;;;;15.18;95.14;100337.48;106083;1253;99109;-79
2023/06/29 01:45:00;;;;;;;10.00;8.70;;;;;;;15.16;95.12;100336.71;106306;1255;96582;-79
2023/06/29 01:47:45;;;;;;;10.00;8.80;;;;;;;15.14;95.19;100335.19;106101;1259;97105;-79
2023/06/29 01:50:31;;;;;;;11.20;9.30;;;;;;;15.12;95.19;100334.35;106155;1259;101207;-80
2023/06/29 01:53:17;;;;;;;11.00;9.00;;;;;;;15.09;95.36;100334.79;106184;1259;100233;-79
2023/06/29 01:56:03;;;;;;;12.20;8.70;;;;;;;15.07;95.46;100340.02;106209;1254;99053;-80
2023/06/29 01:58:48;;;;;;;9.20;8.20;;;;;;;15.07;95.43;100340.29;106244;1259;96653;-79
2023/06/29 02:01:34;;;;;;;10.40;8.20;;;;;;;15.03;95.23;100345.17;106318;1256;96543;-79
2023/06/29 02:04:19;;;;;;;9.90;8.80;;;;;;;14.99;95.41;100342.64;106382;1253;101216;-79
2023/06/29 02:07:05;;;;;;;10.80;8.10;;;;;;;14.96;95.52;100337.70;106384;1254;99026;-79
2023/06/29 02:09:51;;;;;;;13.00;8.90;;;;;;;14.95;95.55;100337.16;106363;1254;97774;-79
2023/06/29 02:12:39;;;;;;;10.00;7.70;;;;;;;14.95;95.59;100345.95;106221;1252;96667;-79
2023/06/29 02:15:25;;;;;;;9.50;7.80;;;;;;;14.96;95.64;100348.48;106341;1256;97179;-78
2023/06/29 02:18:11;;;;;;;11.00;7.70;;;;;;;14.97;95.66;100348.76;106284;1256;99982;-79
2023/06/29 02:20:59;;;;;;;10.00;7.10;;;;;;;14.95;95.60;100348.44;106263;1256;100143;-78
2023/06/29 02:23:45;;;;;;;9.20;7.60;;;;;;;14.93;95.75;100349.42;106361;1256;97786;-79
2023/06/29 02:26:31;;;;;;;8.20;7.40;;;;;;;14.93;95.50;100353.27;106272;1254;96603;-79
2023/06/29 02:29:16;;;;;;;9.20;7.50;;;;;;;14.93;95.54;100361.70;106329;1254;97848;-79
2023/06/29 02:32:04;;;;;;;10.70;7.40;;;;;;;14.91;95.63;100359.77;106335;1254;99995;-77
2023/06/29 02:34:49;;;;;;;8.50;6.80;;;;;;;14.91;95.41;100355.95;106198;1256;100123;-79
2023/06/29 02:37:36;;;;;;;13.10;6.80;;;;;;;14.89;95.51;100353.96;106273;1256;98156;-79
2023/06/29 02:40:21;;;;;;;9.80;7.00;;;;;;;14.89;95.56;100351.28;106374;1254;97184;-79
2023/06/29 02:43:07;;;;;;;9.90;7.40;;;;;;;14.88;95.51;100356.52;106312;1252;96612;-78
2023/06/29 02:45:53;;;;;;;10.40;6.90;;;;;;;14.87;95.43;100354.54;106253;1253;100110;-79
2023/06/29 02:48:39;;;;;;;8.10;7.30;;;;;;;14.86;95.44;100353.42;106413;1253;99067;-78
2023/06/29 02:51:25;;;;;;;10.40;7.80;;;;;;;14.86;95.48;100355.63;106460;1256;97834;-78
2023/06/29 02:54:14;;;;;;;8.50;7.00;;;;;;;14.84;95.43;100361.56;106225;1257;96716;-78
2023/06/29 02:56:59;;;;;;;7.40;6.70;;;;;;;14.84;95.83;100363.39;106243;1254;97020;-77
2023/06/29 02:59:46;;;;;;;9.50;7.20;;;;;;;14.83;95.81;100361.91;106309;1256;99943;-79
2023/06/29 03:02:33;;;;;;;10.00;6.60;;;;;;;14.83;95.68;100368.54;106299;1253;99811;-79
2023/06/29 03:05:19;;;;;;;8.50;6.90;;;;;;;14.83;95.89;100369.99;106386;1254;98956;-78
2023/06/29 03:08:05;;;;;;;8.30;7.40;;;;;;;14.83;95.74;100375.27;106327;1256;96575;-79
2023/06/29 03:10:51;;;;;;;9.50;7.00;;;;;;;14.83;95.73;100371.45;106666;1254;96683;-79
2023/06/29 03:13:36;;;;;;;9.20;7.00;;;;;;;14.83;95.88;100371.86;106314;1255;101237;-80
2023/06/29 03:16:22;;;;;;;9.10;7.70;;;;;;;14.82;95.92;100372.45;106454;1256;99992;-79
2023/06/29 03:19:08;;;;;;;9.50;7.60;;;;;;;14.82;96.22;100373.86;106290;1254;97701;-78
2023/06/29 03:21:53;;;;;;;11.50;7.10;;;;;;;14.82;96.25;100375.90;106266;1254;96594;-78
2023/06/29 03:24:39;;;;;;;8.10;7.20;;;;;;;14.82;96.56;100376.86;106560;1252;96596;-80
2023/06/29 03:27:25;;;;;;;8.30;7.50;;;;;;;14.81;96.43;100374.79;106828;1256;101289;-80
2023/06/29 03:30:11;;;;;;;10.40;7.20;;;;;;;14.82;96.68;100376.39;106939;1254;100539;-80
2023/06/29 03:32:58;;;;;;;9.50;7.20;;;;;;;14.86;96.96;100381.80;106962;1256;97687;-80
2023/06/29 03:35:44;;;;;;;11.20;7.90;;;;;;;14.88;97.11;100384.30;106881;1252;96596;-79
2023/06/29 03:38:29;;;;;;;9.70;7.10;;;;;;;14.90;97.36;100386.73;106737;1254;97217;-81
2023/06/29 03:41:15;;;;;;;10.70;8.30;;;;;;;14.92;97.61;100394.79;106816;1253;101412;-80
2023/06/29 03:44:00;;;;;;;9.20;6.80;;;;;;;14.94;97.82;100395.52;106778;1256;100355;-81
2023/06/29 03:46:47;;;;;;;10.50;7.90;;;;;;;14.98;97.86;100400.75;106853;1253;98992;-80
2023/06/29 03:49:33;;;;;;;9.70;7.30;;;;;;;15.01;97.96;100401.55;107071;1253;96683;-78
2023/06/29 03:52:18;;;;;;;9.80;8.00;;;;;;;15.05;98.14;100402.55;106064;1254;96593;-78
2023/06/29 03:55:05;;;;;;;11.90;7.40;;;;;;;15.09;98.34;100401.92;106706;1259;99966;-78
2023/06/29 03:57:51;;;;;;;9.00;6.90;;;;;;;15.14;98.28;100400.95;106894;1254;99090;-79
2023/06/29 04:00:36;;;;;;;9.90;7.30;;;;;;;15.18;98.37;100407.25;106814;1256;97709;-79
2023/06/29 04:03:22;;;;;;;9.30;7.20;;;;;;;15.21;98.67;100407.39;107240;1254;97098;-81
2023/06/29 04:06:07;;;;;;;9.10;6.40;;;;;;;15.27;98.69;100410.91;107272;1256;96616;-80
2023/06/29 04:08:53;;;;;;;8.50;6.70;;;;;;;15.31;98.76;100405.35;107219;1253;100016;-80
2023/06/29 04:11:39;;;;;;;11.20;6.80;;;;;;;15.35;99.06;100404.06;106675;1255;100418;-80
2023/06/29 04:14:24;;;;;;;9.00;7.50;;;;;;;15.38;99.10;100407.31;106788;1254;98995;-82
2023/06/29 04:17:10;;;;;;;10.60;8.30;;;;;;;15.47;99.59;100411.24;106391;1254;96565;-79
2023/06/29 04:19:55;;;;;;;9.90;7.20;;;;;;;15.53;99.48;100409.92;106558;1256;97058;-80
2023/06/29 04:22:40;;;;;;;10.80;7.50;;;;;;;15.61;99.59;100411.19;106525;1256;101436;-80
2023/06/29 04:25:26;;;;;;;8.30;7.20;;;;;;;15.69;99.53;100412.97;106498;1254;99071;-79
2023/06/29 04:28:12;;;;;;;8.60;7.10;;;;;;;15.76;99.22;100416.20;106355;1259;97792;-79
2023/06/29 04:30:58;;;;;;;8.20;6.60;;;;;;;15.82;99.39;100415.86;106330;1253;97893;-80
2023/06/29 04:33:44;;;;;;;9.20;7.00;;;;;;;15.89;99.41;100416.00;106681;1256;97618;-79
2023/06/29 04:36:30;;;;;;;15.00;6.60;;;;;;;15.96;99.28;100414.25;105897;1256;99908;-78
2023/06/29 04:39:15;;;;;;;10.00;6.10;;;;;;;16.01;99.08;100415.88;105726;1257;99258;-78
2023/06/29 04:42:02;;;;;;;7.80;6.50;;;;;;;16.09;99.32;100416.37;105921;1254;97712;-78
2023/06/29 04:44:48;;;;;;;8.00;7.20;;;;;;;16.18;99.54;100419.91;105918;1256;96609;-77
2023/06/29 04:47:33;;;;;;;12.20;6.60;;;;;;;16.26;99.39;100418.98;106329;1254;97886;-79
2023/06/29 04:50:25;;;;;;;9.70;6.90;;;;;;;16.34;98.97;100421.08;106164;1269;99961;-79
2023/06/29 04:53:12;;;;;;;8.80;6.20;;;;;;;16.40;98.83;100417.66;106307;1256;99672;-80
2023/06/29 04:55:58;;;;;;;7.80;6.10;;;;;;;16.46;98.88;100419.40;106402;1254;98056;-79
2023/06/29 04:58:44;;;;;;;9.70;5.80;;;;;;;16.53;98.95;100429.31;106406;1256;96603;-80
2023/06/29 05:01:29;;;;;;;11.90;5.60;;;;;;;16.60;98.60;100433.02;106214;1254;97340;-78
2023/06/29 05:04:15;;;;;;;6.40;5.80;;;;;;;16.66;98.44;100434.41;106183;1258;100980;-79
2023/06/29 05:07:00;;;;;;;6.50;5.30;;;;;;;16.75;98.03;100434.78;106299;1256;100298;-79
2023/06/29 05:09:46;;;;;;;6.40;5.60;;;;;;;16.84;98.20;100430.58;106067;1259;97792;-78
2023/06/29 05:12:31;;;;;;;7.20;4.90;;;;;;;16.88;97.89;100432.45;106283;1257;96926;-79
2023/06/29 05:15:17;;;;;;;8.40;5.50;;;;;;;16.95;97.83;100433.35;106289;1256;96613;-80
2023/06/29 05:18:02;;;;;;;6.60;5.10;;;;;;;17.05;97.55;100433.15;106303;1254;99972;-80
2023/06/29 05:20:48;;;;;;;6.80;5.30;;;;;;;17.15;97.70;100430.00;106305;1256;99987;-78
2023/06/29 05:23:34;;;;;;;9.00;5.50;;;;;;;17.25;97.23;100426.99;106325;1256;97702;-80
2023/06/29 05:26:19;;;;;;;5.90;5.20;;;;;;;17.30;96.38;100429.40;106611;1256;96699;-79
2023/06/29 05:29:05;;;;;;;9.50;5.00;;;;;;;17.34;96.07;100433.23;107141;1254;95831;-81
2023/06/29 05:31:50;;;;;;;6.70;5.00;;;;;;;17.39;95.98;100428.37;107321;1256;101804;-81
2023/06/29 05:34:36;;;;;;;6.60;4.30;;;;;;;17.45;96.02;100427.30;107310;1253;100360;-80
2023/06/29 05:37:22;;;;;;;6.30;5.40;;;;;;;17.50;95.67;100429.79;106842;1254;98198;-81
2023/06/29 05:40:08;;;;;;;6.40;5.00;;;;;;;17.56;95.36;100431.77;106847;1256;96597;-79
2023/06/29 05:42:54;;;;;;;8.80;5.10;;;;;;;17.63;95.51;100429.77;106311;1256;98311;-77
2023/06/29 05:45:40;;;;;;;9.30;4.50;;;;;;;17.72;95.61;100426.33;106105;1254;100197;-78
2023/06/29 05:48:25;;;;;;;8.70;5.50;;;;;;;17.82;95.19;100425.23;106111;1254;99109;-79
2023/06/29 05:51:10;;;;;;;6.00;5.30;;;;;;;17.88;94.94;100424.90;105865;1256;97660;-79
2023/06/29 05:53:56;;;;;;;7.50;5.10;;;;;;;17.97;95.06;100428.84;106296;1254;96792;-79
2023/06/29 05:56:42;;;;;;;7.20;4.90;;;;;;;18.08;94.66;100427.21;106632;1257;96553;-78
2023/06/29 05:59:29;;;;;;;5.40;4.90;;;;;;;18.16;94.36;100426.89;106972;1256;101283;-79
2023/06/29 06:02:15;;;;;;;8.50;5.30;;;;;;;18.23;94.00;100427.86;106986;1254;100367;-80
2023/06/29 06:05:01;;;;;;;11.10;5.50;;;;;;;18.32;94.06;100428.46;106892;1254;99133;-81
2023/06/29 06:07:46;;;;;;;7.20;5.30;;;;;;;18.42;94.10;100427.58;106825;1256;96612;-79
2023/06/29 06:10:32;;;;;;;8.30;4.90;;;;;;;18.52;93.68;100427.27;106986;1254;96526;-80
2023/06/29 06:13:18;;;;;;;9.70;5.20;;;;;;;18.64;93.83;100428.95;106942;1253;100041;-80
2023/06/29 06:16:04;;;;;;;7.70;5.20;;;;;;;18.77;93.53;100432.78;106890;1257;99821;-80
2023/06/29 06:18:50;;;;;;;8.80;5.10;;;;;;;18.89;92.89;100434.02;106898;1256;97707;-81
2023/06/29 06:21:35;;;;;;;6.00;5.30;;;;;;;18.97;92.58;100436.50;106947;1256;96606;-81
2023/06/29 06:24:21;;;;;;;8.00;5.30;;;;;;;19.05;92.33;100437.39;107021;1254;96549;-80
2023/06/29 06:27:07;;;;;;;6.20;5.10;;;;;;;19.14;92.61;100439.45;106849;1254;101096;-80
2023/06/29 06:29:52;;;;;;;11.10;5.40;;;;;;;19.27;92.11;100440.42;106982;1257;108698;-80
2023/06/29 06:32:41;;;;;;;6.80;5.30;;;;;;;19.36;92.03;100440.09;106905;1254;97706;-80
2023/06/29 06:35:28;;;;;;;7.20;5.00;;;;;;;19.47;91.36;100437.77;106868;1256;97299;-80
2023/06/29 06:38:14;;;;;;;6.80;5.10;;;;;;;19.60;91.88;100435.95;106974;1256;97525;-79
2023/06/29 06:41:00;;;;;;;8.30;5.10;;;;;;;19.71;91.41;100438.03;106917;1254;101228;-80
2023/06/29 06:43:45;;;;;;;6.00;4.80;;;;;;;19.82;90.88;100436.55;106909;1257;99080;-80
2023/06/29 06:46:33;;;;;;;12.30;5.10;;;;;;;19.92;90.06;100434.20;107051;1257;98979;-81
2023/06/29 06:49:18;;;;;;;9.30;5.20;;;;;;;20.01;89.71;100436.00;106931;1254;96572;-80
2023/06/29 06:52:04;;;;;;;5.70;4.90;;;;;;;20.10;89.34;100440.08;107101;1258;97246;-81
2023/06/29 06:54:50;;;;;;;11.80;5.40;;;;;;;20.17;88.47;100437.23;105827;1258;101347;-78
2023/06/29 06:57:36;;;;;;;6.90;5.20;;;;;;;20.22;87.86;100441.50;106492;1257;99031;-79
2023/06/29 07:00:22;;;;;;;7.70;5.30;;;;;;;20.28;87.64;100439.18;106240;1257;97715;-79
2023/06/29 07:03:08;;;;;;;6.20;5.00;;;;;;;20.35;87.76;100441.07;106207;1264;96889;-79
2023/06/29 07:05:53;;;;;;;8.60;5.10;;;;;;;20.43;87.64;100442.20;106340;1254;97619;-80
2023/06/29 07:08:40;;;;;;;7.20;5.60;;;;;;;20.50;86.72;100437.48;106451;1255;99930;-80
2023/06/29 07:11:26;;;;;;;6.70;5.80;;;;;;;20.55;86.55;100437.92;106465;1257;99119;-80
2023/06/29 07:14:12;;;;;;;5.60;4.60;;;;;;;20.63;86.47;100436.65;106668;1256;97690;-81
2023/06/29 07:16:58;;;;;;;9.30;5.90;;;;;;;20.74;85.97;100433.34;107006;1256;96519;-80
2023/06/29 07:19:43;;;;;;;10.70;5.50;;;;;;;20.83;85.18;100429.93;106997;1254;97161;-79
2023/06/29 07:22:28;;;;;;;6.00;5.40;;;;;;;20.92;85.13;100430.67;105989;1259;101123;-79
2023/06/29 07:25:14;;;;;;;9.90;5.20;;;;;;;21.02;85.18;100430.64;106187;1257;99136;-79
2023/06/29 07:28:00;;;;;;;8.30;5.60;;;;;;;21.12;84.76;100433.39;106121;1257;98608;-79
2023/06/29 07:30:45;;;;;;;8.90;5.00;;;;;;;21.18;84.06;100433.50;106700;1254;96818;-80
2023/06/29 07:33:31;;;;;;;7.40;4.80;;;;;;;21.23;83.47;100431.53;106797;1259;98286;-79
2023/06/29 07:36:16;;;;;;;5.90;5.20;;;;;;;21.29;83.11;100427.33;106757;1254;100854;-80
2023/06/29 07:39:02;;;;;;;6.80;5.30;;;;;;;21.37;82.57;100421.48;106757;1254;100235;-81
2023/06/29 07:41:48;;;;;;;7.40;5.40;;;;;;;21.46;82.57;100420.95;106941;1254;97713;-80
2023/06/29 07:44:34;;;;;;;8.70;5.40;;;;;;;21.57;82.29;100420.88;106774;1259;97170;-81
2023/06/29 07:47:19;;;;;;;6.00;5.30;;;;;;;21.64;81.54;100420.09;106798;1258;97049;-80
2023/06/29 07:50:06;;;;;;;5.20;4.70;;;;;;;21.66;80.61;100417.11;106833;1254;99999;-80
2023/06/29 07:52:53;;;;;;;8.50;4.80;;;;;;;21.72;80.09;100415.23;106864;1254;99562;-80
2023/06/29 07:55:38;;;;;;;6.30;4.80;;;;;;;21.79;80.13;100411.19;106802;1254;99901;-80
2023/06/29 07:58:23;;;;;;;7.60;4.90;;;;;;;21.88;79.23;100412.09;107160;1253;96577;-80
2023/06/29 08:01:09;;;;;;;8.80;4.40;;;;;;;21.93;78.89;100411.83;106894;1255;97717;-79
2023/06/29 08:03:54;;;;;;;5.40;4.30;;;;;;;22.00;78.16;100409.14;107067;1254;99990;-80
2023/06/29 08:06:43;;;;;;;8.50;5.00;;;;;;;22.06;77.53;100411.19;107117;1253;100783;-81
2023/06/29 08:09:30;;;;;;;5.30;4.70;;;;;;;22.13;77.25;100407.49;107148;1258;107675;-81
2023/06/29 08:12:15;;;;;;;9.20;5.70;;;;;;;22.21;78.14;100406.00;106575;1257;96587;-80
2023/06/29 08:15:01;;;;;;;6.60;4.70;;;;;;;22.33;77.28;100402.83;106257;1260;97072;-78
2023/06/29 08:17:46;;;;;;;6.00;5.40;;;;;;;22.41;76.02;100403.71;106170;1255;101472;-79
2023/06/29 08:20:32;;;;;;;5.90;4.30;;;;;;;22.46;75.25;100403.89;106218;1258;99088;-79
2023/06/29 08:23:18;;;;;;;6.40;4.30;;;;;;;22.55;75.37;100403.39;106211;1254;97578;-78
2023/06/29 08:26:04;;;;;;;5.60;4.90;;;;;;;22.61;73.97;100399.66;106209;1254;96683;-79
2023/06/29 08:28:50;;;;;;;7.50;4.10;;;;;;;22.64;73.68;100400.10;106294;1256;98587;-79
2023/06/29 08:31:35;;;;;;;4.50;4.10;;;;;;;22.71;73.04;100401.69;106185;1257;99977;-79
2023/06/29 08:34:22;;;;;;;4.80;4.40;;;;;;;22.74;72.15;100397.32;106273;1257;99107;-79
2023/06/29 08:37:07;;;;;;;4.90;4.10;;;;;;;22.80;72.07;100400.83;105889;1254;98921;-79
2023/06/29 08:39:53;;;;;;;4.60;3.90;;;;;;;22.81;70.56;100397.66;106256;1257;95951;-78
2023/06/29 08:42:39;;;;;;;4.80;4.30;;;;;;;22.85;71.07;100400.94;106198;1258;96411;-79
2023/06/29 08:45:25;;;;;;;4.00;3.60;;;;;;;22.91;71.11;100398.31;106277;1256;100552;-78
2023/06/29 08:48:14;;;;;;;5.00;4.00;;;;;;;22.99;69.56;100408.38;106204;1256;109661;-79
2023/06/29 08:51:10;;;;;;;5.30;3.60;;;;;;;23.02;68.96;100404.45;106206;1257;98716;-79
2023/06/29 08:53:56;;;;;;;4.20;3.50;;;;;;;23.04;67.63;100402.59;106155;1258;96701;-79
2023/06/29 08:56:42;;;;;;;4.80;4.30;;;;;;;23.07;67.04;100406.42;106243;1258;96406;-79
2023/06/29 08:59:28;;;;;;;7.20;4.80;;;;;;;23.10;66.79;100403.09;106077;1256;99917;-78
2023/06/29 09:02:15;;;;;;;5.00;4.10;;;;;;;23.17;67.41;100403.67;106026;1254;100332;-77
2023/06/29 09:05:02;;;;;;;8.20;3.90;;;;;;;23.25;66.19;100400.89;106164;1262;99161;-78
2023/06/29 09:07:50;;;;;;;5.60;3.80;;;;;;;23.30;65.30;100399.34;106032;1257;98535;-78
2023/06/29 09:10:37;;;;;;;3.90;3.20;;;;;;;23.32;64.91;100401.44;105926;1259;99562;-79
2023/06/29 09:13:26;;;;;;;3.90;3.50;;;;;;;23.36;64.41;100392.21;106089;1254;101978;-78
2023/06/29 09:16:14;;;;;;;3.80;3.20;;;;;;;23.43;64.54;100389.04;106248;1257;98966;-78
2023/06/29 09:18:59;;;;;;;8.30;3.70;;;;;;;23.55;64.51;100388.63;106135;1257;98080;-79
2023/06/29 09:21:47;;;;;;;5.70;3.50;;;;;;;23.59;63.43;100387.36;106259;1256;98014;-79
2023/06/29 09:24:34;;;;;;;11.50;3.90;;;;;;;23.66;64.26;100387.67;106291;1257;97877;-79
2023/06/29 09:27:19;;;;;;;3.90;3.40;;;;;;;23.79;63.25;100389.65;106696;1256;102003;-79
2023/06/29 09:30:06;;;;;;;4.50;3.10;;;;;;;23.86;61.97;100383.05;106180;1256;99135;-79
2023/06/29 09:32:52;;;;;;;4.20;3.60;;;;;;;23.91;61.81;100376.91;106419;1256;97956;-78
2023/06/29 09:35:43;;;;;;;3.70;3.20;;;;;;;23.97;61.84;100378.75;106160;1254;99224;-79
2023/06/29 09:38:30;;;;;;;6.60;3.90;;;;;;;24.06;61.74;100383.50;106231;1257;98484;-80
2023/06/29 09:41:16;;;;;;;6.00;3.50;;;;;;;24.12;60.64;100381.45;106131;1254;101348;-79
2023/06/29 09:44:02;;;;;;;3.70;2.80;;;;;;;24.16;59.52;100382.48;106392;1258;99071;-83
2023/06/29 09:46:49;;;;;;;6.40;3.30;;;;;;;24.18;59.81;100381.21;106884;1254;99000;-78
2023/06/29 09:49:48;;;;;;;3.60;3.20;;;;;;;24.22;59.52;100379.44;106222;1254;98454;-80
2023/06/29 09:52:45;;;;;;;3.30;2.80;;;;;;;24.26;58.74;100377.54;106254;1254;98405;-77
2023/06/29 09:55:30;;;;;;;4.30;3.30;;;;;;;24.31;58.78;100377.25;106208;1254;102544;-78
2023/06/29 09:58:17;;;;;;;4.30;3.00;;;;;;;24.36;57.67;100377.06;106335;1256;99096;-78
2023/06/29 10:01:03;;;;;;;7.00;3.10;;;;;;;24.36;56.51;100371.42;106224;1254;98431;-79
2023/06/29 10:03:49;;;;;;;3.30;3.00;;;;;;;24.40;56.43;100376.31;106054;1257;98549;-79
2023/06/29 10:06:48;;;;;;;4.00;3.40;;;;;;;24.48;56.65;100375.23;106337;1255;97974;-79
2023/06/29 10:09:37;;;;;;;4.00;2.90;;;;;;;24.56;55.84;100374.36;106201;1254;101502;-79
2023/06/29 10:12:26;;;;;;;3.20;2.90;;;;;;;24.61;55.64;100375.59;106288;1256;100916;-77
2023/06/29 10:15:13;;;;;;;3.90;3.30;;;;;;;24.65;54.40;100379.06;106110;1252;97945;-77
2023/06/29 10:18:01;;;;;;;3.20;2.70;;;;;;;24.66;53.64;100382.94;106183;1254;98029;-79
2023/06/29 10:20:47;;;;;;;5.70;3.40;;;;;;;24.67;53.68;100377.45;106306;1254;98603;-79
2023/06/29 10:23:34;;;;;;;3.70;3.20;;;;;;;24.72;53.73;100375.57;106151;1258;102051;-78
2023/06/29 10:26:21;;;;;;;3.90;3.40;;;;;;;24.76;53.54;100372.83;106180;1255;100734;-79
2023/06/29 10:29:09;;;;;;;3.80;3.40;;;;;;;24.85;54.35;100374.23;106310;1255;99587;-79
2023/06/29 10:31:58;;;;;;;3.60;3.00;;;;;;;24.92;53.30;100377.48;106381;1254;97985;-79
2023/06/29 10:35:02;;;;;;;3.50;3.20;;;;;;;24.93;52.79;100372.36;106194;1256;97941;-79
2023/06/29 10:37:49;;;;;;;7.40;3.50;;;;;;;24.90;53.22;100374.67;107830;1252;101436;-78
2023/06/29 10:40:45;;;;;;;4.40;3.30;;;;;;;24.92;53.35;100372.20;106088;1254;99048;-79
2023/06/29 10:43:58;;;;;;;3.90;3.20;;;;;;;24.97;53.63;100376.88;106345;1257;97966;-78
2023/06/29 10:46:48;;;;;;;5.30;3.10;;;;;;;25.04;53.60;100374.95;106246;1257;97982;-79
2023/06/29 10:49:34;;;;;;;;;;;;;;;25.14;54.04;100374.04;106178;1256;98664;-79
2023/06/29 10:52:24;;;;;;;4.40;3.40;;;;;;;25.12;53.21;100373.02;106108;1254;102580;-79
2023/06/29 10:55:25;;;;;;;3.40;3.10;;;;;;;25.08;52.79;100369.01;106104;1257;99451;-79
2023/06/29 10:58:18;;;;;;;4.30;3.40;;;;;;;25.10;53.08;100359.66;106038;1254;101002;-79
2023/06/29 11:01:03;;;;;;;4.30;3.30;;;;;;;25.16;53.18;100356.93;106269;1256;98318;-78
2023/06/29 11:03:49;;;;;;;6.20;3.20;;;;;;;25.20;53.51;100350.03;106196;1254;97896;-78
2023/06/29 11:06:35;;;;;;;5.40;3.30;;;;;;;25.28;53.74;100346.33;106052;1254;101471;-78
2023/06/29 11:09:20;;;;;;;5.50;3.60;;;;;;;25.34;53.41;100345.89;106216;1252;100304;-78
2023/06/29 11:12:07;;;;;;;4.80;3.30;;;;;;;25.42;53.58;100342.59;106167;1254;98886;-79
2023/06/29 11:14:56;;;;;;;5.00;3.10;;;;;;;25.45;52.92;100340.21;106207;1256;99206;-80
2023/06/29 11:17:42;;;;;;;8.70;3.80;;;;;;;25.42;52.43;100340.48;106283;1257;98398;-79
2023/06/29 11:20:29;;;;;;;4.60;3.00;;;;;;;25.42;52.44;100330.90;106373;1253;101367;-77
2023/06/29 11:23:16;;;;;;;3.30;3.00;;;;;;;25.38;52.34;100328.35;106274;1254;101281;-78
2023/06/29 11:26:02;;;;;;;4.60;3.20;;;;;;;25.36;52.74;100325.14;106240;1252;98844;-78
2023/06/29 11:28:49;;;;;;;5.30;2.90;;;;;;;25.42;52.58;100326.36;106143;1256;97954;-78
2023/06/29 11:31:34;;;;;;;3.30;2.80;;;;;;;25.53;51.84;100323.34;106238;1256;98817;-79
2023/06/29 11:34:20;;;;;;;4.10;3.10;;;;;;;25.64;51.81;100318.81;106363;1257;102558;-78
2023/06/29 11:37:05;;;;;;;5.10;3.20;;;;;;;25.79;51.54;100320.22;106154;1253;99161;-79
2023/06/29 11:39:51;;;;;;;4.50;3.00;;;;;;;25.87;51.35;100321.15;105537;1260;97992;-78
2023/06/29 11:42:36;;;;;;;3.30;3.00;;;;;;;25.92;51.08;100316.48;105552;1253;98209;-79
2023/06/29 11:45:23;;;;;;;3.80;3.20;;;;;;;25.87;51.00;100317.10;105491;1257;98587;-78
2023/06/29 11:48:11;;;;;;;4.20;2.90;;;;;;;25.75;50.32;100316.70;105450;1254;101395;-77
2023/06/29 11:50:59;;;;;;;4.40;3.10;;;;;;;25.57;49.53;100311.48;105773;1256;100323;-78
2023/06/29 11:53:45;;;;;;;4.00;3.50;;;;;;;25.49;49.79;100308.58;106105;1254;98862;-79
2023/06/29 11:56:38;;;;;;;3.50;3.10;;;;;;;25.45;49.89;100301.48;106070;1256;97943;-78
2023/06/29 11:59:24;;;;;;;4.60;3.60;;;;;;;25.54;50.77;100301.49;106075;1253;97963;-78
2023/06/29 12:02:10;;;;;;;5.70;3.20;;;;;;;25.70;51.37;100296.25;105498;1257;103561;-77
2023/06/29 12:04:57;;;;;;;8.60;3.70;;;;;;;25.85;51.06;100296.00;105797;1253;100260;-78
2023/06/29 12:07:44;;;;;;;3.90;3.40;;;;;;;25.91;50.21;100295.85;106099;1256;99422;-78
2023/06/29 12:10:35;;;;;;;4.30;2.90;;;;;;;25.98;50.20;100289.99;105684;1256;99038;-78
2023/06/29 12:13:20;;;;;;;3.40;3.00;;;;;;;26.00;50.09;100290.40;105999;1256;97976;-78
2023/06/29 12:16:09;;;;;;;2.80;2.40;;;;;;;25.92;49.51;100289.30;105879;1256;102297;-79
2023/06/29 12:18:54;;;;;;;4.50;3.20;;;;;;;25.89;49.99;100284.86;105831;1253;99067;-77
2023/06/29 12:21:40;;;;;;;5.80;3.30;;;;;;;26.00;50.73;100279.54;105860;1257;97998;-79
2023/06/29 12:24:26;;;;;;;6.90;3.00;;;;;;;26.09;49.52;100278.72;105659;1254;98012;-78
2023/06/29 12:27:12;;;;;;;7.20;3.20;;;;;;;26.14;49.21;100280.42;105784;1254;99117;-77
2023/06/29 12:29:58;;;;;;;3.70;3.30;;;;;;;26.24;49.21;100280.43;105798;1254;101295;-78
2023/06/29 12:32:47;;;;;;;8.70;3.50;;;;;;;26.34;49.00;100278.96;105942;1258;99139;-79
2023/06/29 12:35:33;;;;;;;4.80;3.10;;;;;;;26.43;49.05;100272.28;105924;1253;97959;-79
2023/06/29 12:38:19;;;;;;;4.00;2.80;;;;;;;26.54;48.97;100273.19;105856;1256;98488;-79
2023/06/29 12:41:04;;;;;;;6.60;3.20;;;;;;;26.63;47.69;100270.90;105888;1254;98843;-79
2023/06/29 12:43:50;;;;;;;2.90;2.60;;;;;;;26.69;47.62;100265.85;105596;1254;102017;-78